createdAt,value
2022-08-02T00:00:10.205Z,98.38
2022-08-02T00:02:37.014Z,98.32
2022-08-02T00:05:04.119Z,98.81
2022-08-02T00:07:30.480Z,99.01
2022-08-02T00:09:56.952Z,98.81
2022-08-02T00:12:23.524Z,99.48
2022-08-02T00:14:50.008Z,99.65
2022-08-02T00:17:16.454Z,99.90
2022-08-02T00:19:42.888Z,100.00
2022-08-02T00:22:09.772Z,100.00
2022-08-02T00:24:36.274Z,100.00
2022-08-02T00:27:09.486Z,100.00
2022-08-02T00:29:51.967Z,100.00
2022-08-02T00:32:19.653Z,100.00
2022-08-02T00:34:46.058Z,100.00
2022-08-02T00:37:12.412Z,100.00
2022-08-02T00:39:38.903Z,100.00
2022-08-02T00:42:05.437Z,100.00
2022-08-02T00:44:31.868Z,100.00
2022-08-02T00:46:58.243Z,100.00
2022-08-02T00:49:24.722Z,100.00
2022-08-02T00:51:51.338Z,100.00
2022-08-02T00:54:19.514Z,100.00
2022-08-02T00:56:50.847Z,100.00
2022-08-02T00:59:18.430Z,100.00
2022-08-02T01:01:56.176Z,100.00
2022-08-02T01:04:29.881Z,100.00
2022-08-02T01:06:59.650Z,100.00
2022-08-02T01:09:26.127Z,100.00
2022-08-02T01:11:52.839Z,100.00
2022-08-02T01:14:19.782Z,100.00
2022-08-02T01:16:59.471Z,100.00
2022-08-02T01:19:46.030Z,100.00
2022-08-02T01:22:15.448Z,100.00
2022-08-02T01:24:53.783Z,100.00
2022-08-02T01:27:36.967Z,100.00
2022-08-02T01:30:04.726Z,100.00
2022-08-02T01:32:42.329Z,100.00
2022-08-02T01:35:20.280Z,100.00
2022-08-02T01:37:46.564Z,100.00
2022-08-02T01:40:18.634Z,100.00
2022-08-02T01:42:48.427Z,100.00
2022-08-02T01:45:17.135Z,100.00
2022-08-02T01:47:45.567Z,100.00
2022-08-02T01:50:16.172Z,100.00
2022-08-02T01:52:53.820Z,100.00
2022-08-02T01:55:33.617Z,100.00
2022-08-02T01:58:14.660Z,100.00
2022-08-02T02:00:42.494Z,100.00
2022-08-02T02:03:13.532Z,100.00
2022-08-02T02:05:41.743Z,100.00
2022-08-02T02:08:09.409Z,100.00
2022-08-02T02:10:39.948Z,100.00
2022-08-02T02:13:14.191Z,100.00
2022-08-02T02:15:49.612Z,100.00
2022-08-02T02:18:21.788Z,100.00
2022-08-02T02:20:48.412Z,100.00
2022-08-02T02:23:15.162Z,100.00
2022-08-02T02:25:46.771Z,100.00
2022-08-02T02:28:24.275Z,100.00
2022-08-02T02:30:54.715Z,100.00
2022-08-02T02:33:26.395Z,100.00
2022-08-02T02:35:58.028Z,100.00
2022-08-02T02:38:27.224Z,100.00
2022-08-02T02:40:56.393Z,100.00
2022-08-02T02:43:25.543Z,100.00
2022-08-02T02:45:53.627Z,100.00
2022-08-02T02:48:20.683Z,100.00
2022-08-02T02:50:48.344Z,100.00
2022-08-02T02:53:18.289Z,100.00
2022-08-02T02:56:01.926Z,100.00
2022-08-02T02:58:30.396Z,100.00
2022-08-02T03:01:15.537Z,100.00
2022-08-02T03:03:44.794Z,100.00
2022-08-02T03:06:15.127Z,100.00
2022-08-02T03:08:42.284Z,100.00
2022-08-02T03:11:10.055Z,100.00
2022-08-02T03:13:37.799Z,100.00
2022-08-02T03:16:05.075Z,100.00
2022-08-02T03:18:35.614Z,100.00
2022-08-02T03:21:07.744Z,100.00
2022-08-02T03:23:34.692Z,100.00
2022-08-02T03:26:02.050Z,100.00
2022-08-02T03:28:28.636Z,100.00
2022-08-02T03:30:55.035Z,100.00
2022-08-02T03:33:22.598Z,100.00
2022-08-02T03:35:51.094Z,100.00
2022-08-02T03:38:19.860Z,100.00
2022-08-02T03:40:47.340Z,100.00
2022-08-02T03:43:15.050Z,100.00
2022-08-02T03:45:50.311Z,100.00
2022-08-02T03:48:31.904Z,100.00
2022-08-02T03:51:02.047Z,100.00
2022-08-02T03:53:28.953Z,100.00
2022-08-02T03:55:56.071Z,100.00
2022-08-02T03:58:24.255Z,100.00
2022-08-02T04:00:53.555Z,100.00
2022-08-02T04:03:20.298Z,100.00
2022-08-02T04:06:01.034Z,100.00
2022-08-02T04:08:35.837Z,100.00
2022-08-02T04:11:22.582Z,100.00
2022-08-02T04:13:49.098Z,100.00
2022-08-02T04:16:21.132Z,100.00
2022-08-02T04:18:57.050Z,100.00
2022-08-02T04:21:27.187Z,100.00
2022-08-02T04:24:18.765Z,100.00
2022-08-02T04:26:49.005Z,100.00
2022-08-02T04:29:17.539Z,100.00
2022-08-02T04:31:44.111Z,100.00
2022-08-02T04:34:15.113Z,100.00
2022-08-02T04:36:42.856Z,100.00
2022-08-02T04:39:09.338Z,100.00
2022-08-02T04:41:44.695Z,100.00
2022-08-02T04:44:12.358Z,100.00
2022-08-02T04:46:40.234Z,100.00
2022-08-02T04:49:06.712Z,100.00
2022-08-02T04:51:37.717Z,100.00
2022-08-02T04:54:09.451Z,100.00
2022-08-02T04:56:37.374Z,100.00
2022-08-02T04:59:04.070Z,100.00
2022-08-02T05:01:30.447Z,100.00
2022-08-02T05:03:56.882Z,100.00
2022-08-02T05:06:23.341Z,100.00
2022-08-02T05:08:53.233Z,100.00
2022-08-02T05:11:21.519Z,100.00
2022-08-02T05:13:58.440Z,100.00
2022-08-02T05:16:30.976Z,100.00
2022-08-02T05:19:02.311Z,100.00
2022-08-02T05:21:29.939Z,100.00
2022-08-02T05:23:56.521Z,100.00
2022-08-02T05:26:22.902Z,99.58
2022-08-02T05:28:49.676Z,96.79
2022-08-02T05:31:16.065Z,96.15
2022-08-02T05:33:42.891Z,96.08
2022-08-02T05:36:09.500Z,94.90
2022-08-02T05:38:37.415Z,93.43
2022-08-02T05:41:07.228Z,92.61
2022-08-02T05:43:33.808Z,91.56
2022-08-02T05:46:00.289Z,90.39
2022-08-02T05:48:31.469Z,90.39
2022-08-02T05:51:10.897Z,90.03
2022-08-02T05:53:50.341Z,89.25
2022-08-02T05:56:23.903Z,89.46
2022-08-02T05:58:56.521Z,90.93
2022-08-02T06:01:32.377Z,92.06
2022-08-02T06:04:01.960Z,92.63
2022-08-02T06:06:30.916Z,92.63
2022-08-02T06:09:23.253Z,90.87
2022-08-02T06:12:02.285Z,89.46
2022-08-02T06:14:32.268Z,88.73
2022-08-02T06:17:00.743Z,88.67
2022-08-02T06:19:31.395Z,88.11
2022-08-02T06:22:40.610Z,87.35
2022-08-02T06:25:03.502Z,85.52
2022-08-02T06:27:30.553Z,86.05
2022-08-02T06:29:57.889Z,85.79
2022-08-02T06:32:26.739Z,85.37
2022-08-02T06:34:53.105Z,83.75
2022-08-02T06:37:46.490Z,84.04
2022-08-02T06:40:45.431Z,83.21
2022-08-02T06:43:16.579Z,83.40
2022-08-02T06:45:43.205Z,83.56
2022-08-02T06:48:10.586Z,82.81
2022-08-02T06:50:41.842Z,81.54
2022-08-02T06:53:09.365Z,81.79
2022-08-02T06:55:43.721Z,79.77
2022-08-02T06:58:11.595Z,81.13
2022-08-02T07:00:38.031Z,79.51
2022-08-02T07:03:04.992Z,79.43
2022-08-02T07:05:31.396Z,77.70
2022-08-02T07:07:57.800Z,77.94
2022-08-02T07:10:24.268Z,78.32
2022-08-02T07:12:50.787Z,77.46
2022-08-02T07:15:17.138Z,76.74
2022-08-02T07:17:43.517Z,76.03
2022-08-02T07:20:10.122Z,74.84
2022-08-02T07:22:36.790Z,74.90
2022-08-02T07:25:03.889Z,74.76
2022-08-02T07:27:30.345Z,74.63
2022-08-02T07:29:57.083Z,74.50
2022-08-02T07:32:26.206Z,74.96
2022-08-02T07:34:54.168Z,74.41
2022-08-02T07:37:35.727Z,73.30
2022-08-02T07:40:14.608Z,72.09
2022-08-02T07:42:47.063Z,71.15
2022-08-02T07:45:14.144Z,70.21
2022-08-02T07:47:42.181Z,69.64
2022-08-02T07:50:09.842Z,69.31
2022-08-02T07:52:36.451Z,70.45
2022-08-02T07:55:03.457Z,70.04
2022-08-02T07:57:29.810Z,69.69
2022-08-02T07:59:56.489Z,70.12
2022-08-02T08:02:24.912Z,70.97
2022-08-02T08:04:52.328Z,68.81
2022-08-02T08:07:18.891Z,67.38
2022-08-02T08:09:47.282Z,66.24
2022-08-02T08:12:16.154Z,65.44
2022-08-02T08:14:43.891Z,66.42
2022-08-02T08:17:10.885Z,66.95
2022-08-02T08:19:51.387Z,67.15
2022-08-02T08:22:19.809Z,65.73
2022-08-02T08:24:46.290Z,65.20
2022-08-02T08:27:14.439Z,64.30
2022-08-02T08:29:44.055Z,64.97
2022-08-02T08:32:16.275Z,64.29
2022-08-02T08:34:44.793Z,64.05
2022-08-02T08:37:16.568Z,63.23
2022-08-02T08:39:57.106Z,62.32
2022-08-02T08:42:29.299Z,62.56
2022-08-02T08:44:57.252Z,62.18
2022-08-02T08:47:34.069Z,62.86
2022-08-02T08:50:18.816Z,62.24
2022-08-02T08:53:06.068Z,59.48
2022-08-02T08:55:34.112Z,60.20
2022-08-02T08:58:01.665Z,61.04
2022-08-02T09:00:30.652Z,60.27
2022-08-02T09:02:57.297Z,61.30
2022-08-02T09:05:23.801Z,61.43
2022-08-02T09:07:51.666Z,59.96
2022-08-02T09:10:39.876Z,58.30
2022-08-02T09:13:31.209Z,59.53
2022-08-02T09:15:57.916Z,58.89
2022-08-02T09:18:31.689Z,57.39
2022-08-02T09:21:04.523Z,55.79
2022-08-02T09:23:38.511Z,56.59
2022-08-02T09:26:07.802Z,56.55
2022-08-02T09:28:37.122Z,56.52
2022-08-02T09:31:12.168Z,56.57
2022-08-02T09:33:40.458Z,56.23
2022-08-02T09:36:10.024Z,55.44
2022-08-02T09:38:37.046Z,54.43
2022-08-02T09:41:05.478Z,52.90
2022-08-02T09:43:57.945Z,54.00
2022-08-02T09:46:33.276Z,54.49
2022-08-02T09:49:02.156Z,54.83
2022-08-02T09:51:37.211Z,53.76
2022-08-02T09:54:08.714Z,53.76
2022-08-02T09:56:50.152Z,51.82
2022-08-02T09:59:18.535Z,53.26
2022-08-02T10:01:51.691Z,51.14
2022-08-02T10:04:29.983Z,51.83
2022-08-02T10:06:59.256Z,51.12
2022-08-02T10:09:28.480Z,53.06
2022-08-02T10:11:55.286Z,52.36
2022-08-02T10:14:21.915Z,53.38
2022-08-02T10:16:48.313Z,54.06
2022-08-02T10:19:16.339Z,54.63
2022-08-02T10:21:52.677Z,54.05
2022-08-02T10:24:22.419Z,55.01
2022-08-02T10:26:49.182Z,54.05
2022-08-02T10:29:17.390Z,54.01
2022-08-02T10:31:59.575Z,52.26
2022-08-02T10:34:35.758Z,53.82
2022-08-02T10:37:08.168Z,53.90
2022-08-02T10:39:49.123Z,54.23
2022-08-02T10:42:44.357Z,51.00
2022-08-02T10:45:15.533Z,52.39
2022-08-02T10:47:57.641Z,51.34
2022-08-02T10:50:45.959Z,51.64
2022-08-02T10:53:26.175Z,50.77
2022-08-02T10:55:55.172Z,50.26
2022-08-02T10:58:25.880Z,51.23
2022-08-02T11:00:53.061Z,51.73
2022-08-02T11:03:45.735Z,49.82
2022-08-02T11:06:25.032Z,51.15
2022-08-02T11:09:31.880Z,49.13
2022-08-02T11:12:03.513Z,48.15
2022-08-02T11:14:30.425Z,47.33
2022-08-02T11:16:56.736Z,47.78
2022-08-02T11:19:27.411Z,47.45
2022-08-02T11:22:13.626Z,47.34
2022-08-02T11:24:42.308Z,48.32
2022-08-02T11:27:16.600Z,46.95
2022-08-02T11:29:45.049Z,48.38
2022-08-02T11:32:30.980Z,46.95
2022-08-02T11:34:58.769Z,48.01
2022-08-02T11:37:44.930Z,46.36
2022-08-02T11:40:14.612Z,47.71
2022-08-02T11:42:50.329Z,45.28
2022-08-02T11:45:21.380Z,47.19
2022-08-02T11:47:54.418Z,46.00
2022-08-02T11:50:29.671Z,46.51
2022-08-02T11:52:57.340Z,44.54
2022-08-02T11:55:28.604Z,45.04
2022-08-02T11:58:05.409Z,46.79
2022-08-02T12:00:32.552Z,45.60
2022-08-02T12:02:59.317Z,45.32
2022-08-02T12:05:51.269Z,45.15
2022-08-02T12:08:13.150Z,45.42
2022-08-02T12:10:47.729Z,45.04
2022-08-02T12:13:14.225Z,43.84
2022-08-02T12:15:45.141Z,44.66
2022-08-02T12:18:32.581Z,44.02
2022-08-02T12:20:59.488Z,41.93
2022-08-02T12:23:26.167Z,42.08
2022-08-02T12:26:09.547Z,42.93
2022-08-02T12:28:42.800Z,41.80
2022-08-02T12:31:13.216Z,44.15
2022-08-02T12:33:53.121Z,42.17
2022-08-02T12:36:26.915Z,42.45
2022-08-02T12:38:55.624Z,41.95
2022-08-02T12:41:30.199Z,40.47
2022-08-02T12:43:59.387Z,43.08
2022-08-02T12:46:26.631Z,42.33
2022-08-02T12:49:16.536Z,40.57
2022-08-02T12:51:59.048Z,40.80
2022-08-02T12:54:38.316Z,42.19
2022-08-02T12:57:15.959Z,40.96
2022-08-02T12:59:48.830Z,39.55
2022-08-02T13:02:16.669Z,41.01
2022-08-02T13:04:50.301Z,40.63
2022-08-02T13:07:17.581Z,41.83
2022-08-02T13:09:48.113Z,38.54
2022-08-02T13:12:14.812Z,39.57
2022-08-02T13:14:42.612Z,40.49
2022-08-02T13:17:11.299Z,38.98
2022-08-02T13:19:38.415Z,39.88
2022-08-02T13:22:05.483Z,41.82
2022-08-02T13:24:40.796Z,40.40
2022-08-02T13:27:20.854Z,40.34
2022-08-02T13:29:48.603Z,40.97
2022-08-02T13:32:15.399Z,41.40
2022-08-02T13:34:42.269Z,42.29
2022-08-02T13:37:08.775Z,40.03
2022-08-02T13:39:35.275Z,42.35
2022-08-02T13:42:02.795Z,41.57
2022-08-02T13:44:29.195Z,41.53
2022-08-02T13:46:55.980Z,41.19
2022-08-02T13:49:51.348Z,42.59
2022-08-02T13:52:08.944Z,42.54
2022-08-02T13:54:35.409Z,41.99
2022-08-02T13:57:02.159Z,41.96
2022-08-02T13:59:57.286Z,42.30
2022-08-02T14:02:15.299Z,40.52
2022-08-02T14:04:44.888Z,40.67
2022-08-02T14:07:11.359Z,40.03
2022-08-02T14:09:37.757Z,40.72
2022-08-02T14:12:07.425Z,40.90
2022-08-02T14:14:33.783Z,38.77
2022-08-02T14:17:01.949Z,40.04
2022-08-02T14:19:28.549Z,40.00
2022-08-02T14:21:55.017Z,40.00
2022-08-02T14:24:38.026Z,38.84
2022-08-02T14:27:04.424Z,38.34
2022-08-02T14:29:30.795Z,40.20
2022-08-02T14:31:57.190Z,39.09
2022-08-02T14:34:23.529Z,39.81
2022-08-02T14:36:53.656Z,38.51
2022-08-02T14:39:20.547Z,39.20
2022-08-02T14:41:58.910Z,39.46
2022-08-02T14:44:27.121Z,38.92
2022-08-02T14:46:53.654Z,40.05
2022-08-02T14:49:25.516Z,39.09
2022-08-02T14:51:53.836Z,38.88
2022-08-02T14:54:28.006Z,39.37
2022-08-02T14:57:02.315Z,39.29
2022-08-02T14:59:29.892Z,38.71
2022-08-02T15:01:56.895Z,39.09
2022-08-02T15:04:23.443Z,39.76
2022-08-02T15:06:49.841Z,41.48
2022-08-02T15:09:16.342Z,40.12
2022-08-02T15:11:47.159Z,41.08
2022-08-02T15:14:15.070Z,41.23
2022-08-02T15:16:55.289Z,41.15
2022-08-02T15:19:23.324Z,40.53
2022-08-02T15:21:56.867Z,41.92
2022-08-02T15:24:23.781Z,40.94
2022-08-02T15:26:50.756Z,41.94
2022-08-02T15:29:18.362Z,41.23
2022-08-02T15:31:44.798Z,41.95
2022-08-02T15:34:11.532Z,41.43
2022-08-02T15:36:37.953Z,41.81
2022-08-02T15:39:04.688Z,42.58
2022-08-02T15:41:31.119Z,42.13
2022-08-02T15:44:00.566Z,42.08
2022-08-02T15:46:32.135Z,41.73
2022-08-02T15:48:59.039Z,44.68
2022-08-02T15:51:26.703Z,43.37
2022-08-02T15:53:53.102Z,42.79
2022-08-02T15:56:23.825Z,44.92
2022-08-02T15:58:51.732Z,43.76
2022-08-02T16:01:23.509Z,43.97
2022-08-02T16:03:50.104Z,44.85
2022-08-02T16:06:16.579Z,45.32
2022-08-02T16:08:53.787Z,45.12
2022-08-02T16:11:22.356Z,45.37
2022-08-02T16:13:54.986Z,45.14
2022-08-02T16:16:23.326Z,47.16
2022-08-02T16:18:49.758Z,47.83
2022-08-02T16:21:16.620Z,47.16
2022-08-02T16:24:02.067Z,48.45
2022-08-02T16:26:31.626Z,47.48
2022-08-02T16:28:59.156Z,47.08
2022-08-02T16:31:25.541Z,45.59
2022-08-02T16:33:56.474Z,47.51
2022-08-02T16:36:24.046Z,49.07
2022-08-02T16:38:50.452Z,50.87
2022-08-02T16:41:16.805Z,49.96
2022-08-02T16:43:43.158Z,48.70
2022-08-02T16:46:10.056Z,49.70
2022-08-02T16:48:36.618Z,48.84
2022-08-02T16:51:03.125Z,50.92
2022-08-02T16:53:37.155Z,50.64
2022-08-02T16:56:05.066Z,49.32
2022-08-02T16:58:31.524Z,48.43
2022-08-02T17:00:57.929Z,49.37
2022-08-02T17:03:24.907Z,49.92
2022-08-02T17:06:11.361Z,49.10
2022-08-02T17:08:54.374Z,50.43
2022-08-02T17:11:21.568Z,49.66
2022-08-02T17:13:50.767Z,49.06
2022-08-02T17:16:20.942Z,50.34
2022-08-02T17:18:54.035Z,50.68
2022-08-02T17:21:20.827Z,50.49
2022-08-02T17:24:05.660Z,52.97
2022-08-02T17:26:34.929Z,53.15
2022-08-02T17:29:15.263Z,53.98
2022-08-02T17:32:12.634Z,53.76
2022-08-02T17:34:35.591Z,56.38
2022-08-02T17:37:02.066Z,59.29
2022-08-02T17:39:33.715Z,59.42
2022-08-02T17:42:01.193Z,59.72
2022-08-02T17:44:37.476Z,57.97
2022-08-02T17:47:07.025Z,58.09
2022-08-02T17:49:33.708Z,58.75
2022-08-02T17:52:48.852Z,59.02
2022-08-02T17:54:48.285Z,59.36
2022-08-02T17:57:15.400Z,58.77
2022-08-02T17:59:42.404Z,58.86
2022-08-02T18:02:11.082Z,56.42
2022-08-02T18:04:38.373Z,56.38
2022-08-02T18:07:09.365Z,57.00
2022-08-02T18:09:36.747Z,57.75
2022-08-02T18:12:03.648Z,56.03
2022-08-02T18:14:30.412Z,57.08
2022-08-02T18:16:56.809Z,60.07
2022-08-02T18:19:23.794Z,62.42
2022-08-02T18:22:08.830Z,64.37
2022-08-02T18:24:35.445Z,64.92
2022-08-02T18:27:04.544Z,64.57
2022-08-02T18:29:38.282Z,64.57
2022-08-02T18:32:05.660Z,63.67
2022-08-02T18:34:38.331Z,63.19
2022-08-02T18:37:05.613Z,62.38
2022-08-02T18:39:33.353Z,62.68
2022-08-02T18:42:05.091Z,62.62
2022-08-02T18:44:31.559Z,63.25
2022-08-02T18:46:57.965Z,61.81
2022-08-02T18:49:46.102Z,62.13
2022-08-02T18:52:14.929Z,63.38
2022-08-02T18:54:41.711Z,61.37
2022-08-02T18:58:04.373Z,62.27
2022-08-02T18:59:56.412Z,61.12
2022-08-02T19:02:24.822Z,62.41
2022-08-02T19:04:51.677Z,62.86
2022-08-02T19:07:22.425Z,61.97
2022-08-02T19:09:49.465Z,63.30
2022-08-02T19:12:16.488Z,61.13
2022-08-02T19:14:55.028Z,58.79
2022-08-02T19:17:55.510Z,60.30
2022-08-02T19:20:09.923Z,60.60
2022-08-02T19:22:46.228Z,63.60
2022-08-02T19:25:15.973Z,64.26
2022-08-02T19:27:42.573Z,63.83
2022-08-02T19:30:14.348Z,63.76
2022-08-02T19:32:58.960Z,63.99
2022-08-02T19:35:30.667Z,64.49
2022-08-02T19:38:09.115Z,63.25
2022-08-02T19:40:35.910Z,61.15
2022-08-02T19:44:26.774Z,62.02
2022-08-02T19:45:49.680Z,62.00
2022-08-02T19:48:24.002Z,61.32
2022-08-02T19:50:56.127Z,62.84
2022-08-02T19:53:28.500Z,64.06
2022-08-02T19:55:58.399Z,63.83
2022-08-02T19:58:28.312Z,63.96
2022-08-02T20:00:54.644Z,63.41
2022-08-02T20:03:20.993Z,60.69
2022-08-02T20:06:07.431Z,61.84
2022-08-02T20:08:37.517Z,62.11
2022-08-02T20:11:04.035Z,62.22
2022-08-02T20:13:34.741Z,61.44
2022-08-02T20:16:27.371Z,63.49
2022-08-02T20:18:55.821Z,62.46
2022-08-02T20:24:11.711Z,63.93
2022-08-02T20:29:43.553Z,63.16
2022-08-02T20:32:21.292Z,64.25
2022-08-02T20:34:49.219Z,63.70
2022-08-02T20:38:01.179Z,63.45
2022-08-02T20:40:03.411Z,64.39
2022-08-02T20:42:29.757Z,64.88
2022-08-02T20:44:56.877Z,64.93
2022-08-02T20:47:38.895Z,65.04
2022-08-02T20:50:30.480Z,64.02
2022-08-02T20:52:59.549Z,61.83
2022-08-02T20:55:27.077Z,64.04
2022-08-02T20:58:00.278Z,63.19
2022-08-02T21:00:27.921Z,64.35
2022-08-02T21:02:54.246Z,63.27
2022-08-02T21:05:20.589Z,63.58
2022-08-02T21:08:07.451Z,63.66
2022-08-02T21:10:41.808Z,63.66
2022-08-02T21:13:18.830Z,63.13
2022-08-02T21:15:48.664Z,63.72
2022-08-02T21:18:19.414Z,64.08
2022-08-02T21:20:55.636Z,63.96
2022-08-02T21:23:23.280Z,63.79
2022-08-02T21:25:57.471Z,63.32
2022-08-02T21:28:24.768Z,64.30
2022-08-02T21:31:09.827Z,63.85
2022-08-02T21:33:57.724Z,64.22
2022-08-02T21:36:22.690Z,64.95
2022-08-02T21:38:58.017Z,64.64
2022-08-02T21:41:24.490Z,63.40
2022-08-02T21:44:07.587Z,63.48
2022-08-02T21:46:34.634Z,64.24
2022-08-02T21:49:01.561Z,65.67
2022-08-02T21:51:28.076Z,65.09
2022-08-02T21:54:18.444Z,65.53
2022-08-02T21:56:42.151Z,65.50
2022-08-02T21:59:15.812Z,64.40
2022-08-02T22:01:52.944Z,64.74
2022-08-02T22:04:20.275Z,65.48
2022-08-02T22:06:46.943Z,64.33
2022-08-02T22:09:17.390Z,64.45
2022-08-02T22:12:04.234Z,65.16
2022-08-02T22:14:33.491Z,65.23
2022-08-02T22:16:59.817Z,65.13
2022-08-02T22:19:26.340Z,64.67
2022-08-02T22:21:56.483Z,64.99
2022-08-02T22:24:29.721Z,65.16
2022-08-02T22:26:57.093Z,65.43
2022-08-02T22:29:23.451Z,66.48
2022-08-02T22:31:49.928Z,67.10
2022-08-02T22:34:37.172Z,65.97
2022-08-02T22:37:07.318Z,65.80
2022-08-02T22:39:34.147Z,66.04
2022-08-02T22:44:46.809Z,65.76
2022-08-02T22:47:15.331Z,66.10
2022-08-02T22:49:51.896Z,66.98
2022-08-02T22:52:21.408Z,66.62
2022-08-02T22:54:48.012Z,67.24
2022-08-02T22:57:14.402Z,67.89
2022-08-02T22:58:55.201Z,63.44
2022-08-02T22:59:08.206Z,61.92
2022-08-02T22:59:09.694Z,65.80
2022-08-02T22:59:41.431Z,67.77
2022-08-02T23:02:09.562Z,68.20
2022-08-02T23:04:36.784Z,67.67
2022-08-02T23:07:03.665Z,68.65
2022-08-02T23:09:30.076Z,68.60
2022-08-02T23:11:56.520Z,69.23
2022-08-02T23:14:22.891Z,69.58
2022-08-02T23:17:08.285Z,70.49
2022-08-02T23:19:53.077Z,70.00
2022-08-02T23:22:21.812Z,69.73
2022-08-02T23:24:56.226Z,70.19
2022-08-02T23:27:22.638Z,68.93
2022-08-02T23:29:49.002Z,69.70
2022-08-02T23:32:15.740Z,68.52
2022-08-02T23:34:42.795Z,69.48
2022-08-02T23:37:09.293Z,69.11
2022-08-02T23:39:36.469Z,68.64
2022-08-02T23:42:04.047Z,70.63
2022-08-02T23:44:30.573Z,70.17
2022-08-02T23:46:57.528Z,71.58
2022-08-02T23:49:24.122Z,72.59
2022-08-02T23:51:51.054Z,72.63
2022-08-02T23:54:17.784Z,72.75
2022-08-02T23:56:44.632Z,73.44
2022-08-02T23:59:11.096Z,73.29
